createdAt,value
2019-01-20T00:02:17.518Z,77.90
2019-01-20T00:04:48.885Z,77.66
2019-01-20T00:07:20.260Z,77.82
2019-01-20T00:09:52.460Z,78.07
2019-01-20T00:12:24.020Z,78.17
2019-01-20T00:14:55.517Z,77.86
2019-01-20T00:17:26.898Z,77.77
2019-01-20T00:19:58.337Z,77.59
2019-01-20T00:22:29.703Z,77.34
2019-01-20T00:25:01.281Z,77.42
2019-01-20T00:27:32.869Z,77.37
2019-01-20T00:30:07.712Z,77.73
2019-01-20T00:32:39.331Z,77.61
2019-01-20T00:35:11.045Z,78.05
2019-01-20T00:37:42.540Z,78.03
2019-01-20T00:40:16.678Z,77.91
2019-01-20T00:46:35.842Z,77.37
2019-01-20T00:49:07.245Z,77.22
2019-01-20T00:51:38.898Z,76.56
2019-01-20T00:54:10.700Z,76.36
2019-01-20T00:56:42.130Z,76.49
2019-01-20T00:59:13.454Z,76.57
2019-01-20T01:01:45.132Z,76.75
2019-01-20T01:04:16.588Z,76.30
2019-01-20T01:06:48.295Z,75.84
2019-01-20T01:09:20.830Z,77.63
2019-01-20T01:11:52.457Z,78.24
2019-01-20T01:14:23.921Z,78.56
2019-01-20T01:16:55.529Z,78.67
2019-01-20T01:19:26.963Z,79.39
2019-01-20T01:21:58.392Z,79.47
2019-01-20T01:24:29.859Z,79.26
2019-01-20T01:27:01.406Z,79.33
2019-01-20T01:29:32.783Z,79.70
2019-01-20T01:32:04.378Z,80.24
2019-01-20T01:34:35.775Z,79.65
2019-01-20T01:37:07.344Z,79.78
2019-01-20T01:39:38.853Z,80.05
2019-01-20T01:42:10.484Z,80.36
2019-01-20T01:44:42.107Z,80.42
2019-01-20T01:47:13.541Z,79.91
2019-01-20T01:49:44.986Z,79.73
2019-01-20T01:52:16.420Z,79.64
2019-01-20T01:54:47.936Z,79.60
2019-01-20T01:57:19.355Z,79.15
2019-01-20T01:59:50.708Z,78.97
2019-01-20T02:02:22.222Z,78.20
2019-01-20T02:04:53.659Z,78.64
2019-01-20T02:07:25.207Z,78.59
2019-01-20T02:09:56.667Z,79.22
2019-01-20T02:12:28.168Z,79.68
2019-01-20T02:14:59.665Z,79.88
2019-01-20T02:17:31.221Z,79.52
2019-01-20T02:20:10.476Z,79.55
2019-01-20T02:22:42.143Z,79.72
2019-01-20T02:25:14.638Z,79.91
2019-01-20T02:27:46.231Z,80.16
2019-01-20T02:30:27.763Z,80.07
2019-01-20T02:32:59.265Z,79.85
2019-01-20T02:35:30.777Z,79.66
2019-01-20T02:38:02.287Z,79.74
2019-01-20T02:40:33.725Z,79.52
2019-01-20T02:43:05.428Z,79.59
2019-01-20T02:45:36.869Z,79.29
2019-01-20T02:48:08.406Z,77.94
2019-01-20T02:50:39.893Z,79.33
2019-01-20T02:53:12.439Z,79.48
2019-01-20T02:55:43.887Z,80.00
2019-01-20T02:58:15.257Z,80.21
2019-01-20T03:00:46.729Z,79.88
2019-01-20T03:03:18.350Z,79.45
2019-01-20T03:05:49.900Z,79.88
2019-01-20T03:08:21.398Z,79.72
2019-01-20T03:10:52.920Z,79.57
2019-01-20T03:13:24.373Z,79.80
2019-01-20T03:15:55.880Z,79.91
2019-01-20T03:18:27.549Z,79.81
2019-01-20T03:20:59.751Z,79.79
2019-01-20T03:23:31.250Z,80.04
2019-01-20T03:26:02.639Z,80.02
2019-01-20T03:28:34.090Z,80.21
2019-01-20T03:31:05.671Z,80.15
2019-01-20T03:33:37.279Z,79.76
2019-01-20T03:36:09.023Z,79.89
2019-01-20T03:38:40.622Z,79.83
2019-01-20T03:41:12.200Z,79.84
2019-01-20T03:43:44.933Z,79.89
2019-01-20T03:46:16.490Z,79.77
2019-01-20T03:48:47.860Z,79.52
2019-01-20T03:51:19.366Z,79.62
2019-01-20T03:53:50.816Z,79.49
2019-01-20T03:56:22.221Z,79.54
2019-01-20T03:58:53.630Z,79.54
2019-01-20T04:01:25.325Z,79.57
2019-01-20T04:03:56.929Z,79.68
2019-01-20T04:06:28.453Z,79.45
2019-01-20T04:08:59.994Z,79.17
2019-01-20T04:11:31.549Z,79.02
2019-01-20T04:14:03.151Z,79.00
2019-01-20T04:16:34.647Z,79.12
2019-01-20T04:19:06.294Z,79.19
2019-01-20T04:21:37.781Z,79.13
2019-01-20T04:24:09.357Z,78.81
2019-01-20T04:26:40.787Z,78.30
2019-01-20T04:29:12.215Z,78.17
2019-01-20T04:31:43.619Z,78.06
2019-01-20T04:34:14.976Z,78.30
2019-01-20T04:36:46.374Z,78.08
2019-01-20T04:39:17.747Z,77.99
2019-01-20T04:41:49.473Z,78.17
2019-01-20T04:44:20.861Z,78.11
2019-01-20T04:46:53.538Z,77.76
2019-01-20T04:49:24.953Z,77.10
2019-01-20T04:51:56.701Z,75.95
2019-01-20T04:54:28.135Z,75.75
2019-01-20T04:56:59.662Z,75.27
2019-01-20T04:59:31.445Z,75.69
2019-01-20T05:02:03.253Z,75.68
2019-01-20T05:04:34.820Z,76.43
2019-01-20T05:07:07.596Z,77.36
2019-01-20T05:09:39.390Z,76.96
2019-01-20T05:12:12.905Z,76.26
2019-01-20T05:14:44.671Z,76.26
2019-01-20T05:17:16.242Z,76.13
2019-01-20T05:19:47.809Z,75.96
2019-01-20T05:22:19.391Z,76.61
2019-01-20T05:24:50.876Z,77.17
2019-01-20T05:27:38.820Z,77.27
2019-01-20T05:30:17.999Z,77.27
2019-01-20T05:32:49.580Z,76.96
2019-01-20T05:35:21.265Z,77.07
2019-01-20T05:37:52.830Z,77.79
2019-01-20T05:40:33.148Z,76.67
2019-01-20T05:43:04.807Z,76.57
2019-01-20T05:45:44.873Z,76.34
2019-01-20T05:48:16.315Z,76.67
2019-01-20T05:50:47.710Z,77.06
2019-01-20T05:53:19.256Z,77.24
2019-01-20T05:56:00.034Z,77.22
2019-01-20T05:58:31.481Z,77.37
2019-01-20T06:01:03.027Z,77.25
2019-01-20T06:03:34.367Z,77.60
2019-01-20T06:06:06.177Z,77.74
2019-01-20T06:08:37.619Z,78.48
2019-01-20T06:11:09.020Z,78.70
2019-01-20T06:13:40.525Z,78.97
2019-01-20T06:16:12.038Z,79.13
2019-01-20T06:18:43.473Z,79.32
2019-01-20T06:21:15.145Z,79.36
2019-01-20T06:23:46.667Z,78.85
2019-01-20T06:26:18.077Z,79.18
2019-01-20T06:28:49.613Z,78.57
2019-01-20T06:31:20.978Z,78.40
2019-01-20T06:33:52.726Z,78.68
2019-01-20T06:36:24.366Z,78.95
2019-01-20T06:38:55.949Z,79.21
2019-01-20T06:41:27.521Z,79.57
2019-01-20T06:43:58.923Z,79.82
2019-01-20T06:46:30.390Z,79.91
2019-01-20T06:49:01.938Z,79.94
2019-01-20T06:51:33.486Z,79.77
2019-01-20T06:54:05.185Z,79.30
2019-01-20T06:56:36.940Z,79.09
2019-01-20T06:59:08.396Z,79.06
2019-01-20T07:01:39.830Z,78.96
2019-01-20T07:04:12.230Z,78.83
2019-01-20T07:06:43.762Z,78.51
2019-01-20T07:09:15.456Z,77.88
2019-01-20T07:11:47.059Z,77.99
2019-01-20T07:14:18.465Z,78.05
2019-01-20T07:16:50.126Z,78.33
2019-01-20T07:19:21.590Z,79.48
2019-01-20T07:21:55.087Z,79.69
2019-01-20T07:24:26.901Z,80.03
2019-01-20T07:26:58.402Z,80.03
2019-01-20T07:29:29.842Z,80.08
2019-01-20T07:32:01.209Z,80.03
2019-01-20T07:34:32.568Z,79.90
2019-01-20T07:37:04.347Z,79.94
2019-01-20T07:39:39.032Z,79.94
2019-01-20T07:42:10.741Z,80.00
2019-01-20T07:44:42.316Z,80.05
2019-01-20T07:47:14.375Z,79.96
2019-01-20T07:49:45.939Z,80.06
2019-01-20T07:52:17.393Z,80.20
2019-01-20T07:55:07.618Z,80.21
2019-01-20T07:57:39.248Z,80.10
2019-01-20T08:00:20.719Z,80.26
2019-01-20T08:02:52.371Z,80.41
2019-01-20T08:05:23.814Z,79.81
2019-01-20T08:07:55.514Z,79.78
2019-01-20T08:10:28.721Z,79.86
2019-01-20T08:13:00.274Z,79.68
2019-01-20T08:15:31.726Z,79.52
2019-01-20T08:18:03.235Z,79.62
2019-01-20T08:20:34.625Z,79.69
2019-01-20T08:23:06.365Z,79.86
2019-01-20T08:25:37.803Z,79.61
2019-01-20T08:28:09.236Z,79.84
2019-01-20T08:30:40.764Z,79.83
2019-01-20T08:33:13.177Z,80.00
2019-01-20T08:35:44.927Z,80.29
2019-01-20T08:38:16.588Z,80.58
2019-01-20T08:40:47.961Z,80.67
2019-01-20T08:43:19.390Z,80.81
2019-01-20T08:46:01.368Z,81.01
2019-01-20T08:48:32.879Z,81.00
2019-01-20T08:51:04.354Z,81.06
2019-01-20T08:53:36.124Z,81.03
2019-01-20T08:56:10.437Z,80.97
2019-01-20T08:58:43.038Z,81.01
2019-01-20T09:01:14.703Z,81.38
2019-01-20T09:03:50.200Z,81.24
2019-01-20T09:06:31.311Z,81.09
2019-01-20T09:09:18.738Z,81.33
2019-01-20T09:11:42.117Z,81.47
2019-01-20T09:14:15.244Z,81.28
2019-01-20T09:16:55.034Z,81.07
2019-01-20T09:19:26.649Z,81.22
2019-01-20T09:21:58.205Z,80.99
2019-01-20T09:24:29.759Z,81.02
2019-01-20T09:27:05.446Z,81.04
2019-01-20T09:29:36.976Z,80.96
2019-01-20T09:32:13.254Z,80.54
2019-01-20T09:34:46.283Z,80.22
2019-01-20T09:37:22.114Z,79.76
2019-01-20T09:40:02.332Z,79.42
2019-01-20T09:42:33.822Z,79.04
2019-01-20T09:45:13.796Z,78.79
2019-01-20T09:47:48.214Z,78.93
2019-01-20T09:50:40.353Z,78.80
2019-01-20T09:53:11.935Z,79.35
2019-01-20T09:55:44.983Z,79.03
2019-01-20T09:58:20.985Z,79.00
2019-01-20T10:00:58.646Z,78.19
2019-01-20T10:03:30.092Z,77.98
2019-01-20T10:06:04.976Z,78.02
2019-01-20T10:08:42.528Z,77.82
2019-01-20T10:11:14.351Z,77.53
2019-01-20T10:13:46.042Z,77.38
2019-01-20T10:16:17.726Z,77.60
2019-01-20T10:18:49.250Z,77.31
2019-01-20T10:21:21.266Z,76.79
2019-01-20T10:23:54.839Z,77.29
2019-01-20T10:26:32.571Z,77.69
2019-01-20T10:35:30.048Z,76.99
2019-01-20T10:38:03.522Z,77.51
2019-01-20T10:40:36.147Z,77.27
2019-01-20T10:43:08.391Z,77.39
2019-01-20T10:48:53.186Z,76.99
2019-01-20T10:51:27.140Z,77.31
2019-01-20T10:54:04.839Z,77.02
2019-01-20T10:56:56.998Z,77.56
2019-01-20T10:59:30.755Z,77.47
2019-01-20T11:02:09.745Z,76.77
2019-01-20T11:04:45.579Z,76.67
2019-01-20T11:07:22.051Z,76.67
2019-01-20T11:10:01.652Z,76.44
2019-01-20T11:12:32.950Z,75.98
2019-01-20T11:15:11.298Z,76.30
2019-01-20T11:17:42.900Z,76.25
2019-01-20T11:20:21.626Z,76.00
2019-01-20T11:22:54.630Z,75.43
2019-01-20T11:25:30.607Z,75.70
2019-01-20T11:28:02.345Z,75.47
2019-01-20T11:30:33.939Z,75.30
2019-01-20T11:33:06.114Z,73.71
2019-01-20T11:35:42.104Z,73.46
2019-01-20T11:38:13.792Z,72.90
2019-01-20T11:40:49.415Z,73.26
2019-01-20T11:43:24.138Z,72.76
2019-01-20T11:45:57.487Z,72.81
2019-01-20T11:48:29.104Z,71.59
2019-01-20T11:51:04.147Z,71.68
2019-01-20T11:53:36.152Z,72.02
2019-01-20T11:56:10.957Z,71.23
2019-01-20T11:58:42.324Z,70.37
2019-01-20T12:04:35.880Z,70.26
2019-01-20T12:07:07.601Z,69.53
2019-01-20T12:09:39.241Z,69.67
2019-01-20T12:12:11.478Z,69.68
2019-01-20T12:14:54.898Z,68.04
2019-01-20T12:17:27.687Z,68.10
2019-01-20T12:19:59.311Z,68.58
2019-01-20T12:22:32.004Z,68.33
2019-01-20T12:25:04.578Z,68.21
2019-01-20T12:27:36.355Z,67.59
2019-01-20T12:30:24.114Z,68.03
2019-01-20T12:32:55.880Z,68.28
2019-01-20T12:35:27.591Z,68.80
2019-01-20T12:38:00.544Z,68.83
2019-01-20T12:40:40.671Z,68.19
2019-01-20T12:43:12.513Z,68.62
2019-01-20T12:45:44.129Z,68.88
2019-01-20T12:48:18.307Z,68.74
2019-01-20T12:50:50.081Z,67.15
2019-01-20T12:53:21.630Z,66.87
2019-01-20T12:55:53.268Z,67.12
2019-01-20T12:58:24.996Z,65.33
2019-01-20T13:01:03.547Z,66.46
2019-01-20T13:03:35.203Z,66.01
2019-01-20T13:06:06.892Z,65.94
2019-01-20T13:08:41.120Z,65.34
2019-01-20T13:11:14.279Z,65.42
2019-01-20T13:13:46.936Z,66.10
2019-01-20T13:16:18.669Z,66.65
2019-01-20T13:18:57.722Z,64.66
2019-01-20T13:21:29.338Z,63.72
2019-01-20T13:24:01.141Z,64.20
2019-01-20T13:26:35.166Z,64.24
2019-01-20T13:29:06.966Z,64.00
2019-01-20T13:31:41.525Z,63.32
2019-01-20T13:34:15.958Z,64.19
2019-01-20T13:36:47.568Z,63.15
2019-01-20T13:39:19.191Z,63.45
2019-01-20T13:41:50.927Z,62.49
2019-01-20T13:44:23.578Z,64.39
2019-01-20T13:46:55.154Z,62.19
2019-01-20T13:49:27.273Z,62.35
2019-01-20T13:51:58.783Z,62.83
2019-01-20T13:54:30.476Z,62.70
2019-01-20T13:57:02.089Z,63.42
2019-01-20T13:59:33.789Z,63.39
2019-01-20T14:02:17.998Z,63.31
2019-01-20T14:04:49.638Z,62.63
2019-01-20T14:14:14.702Z,63.51
2019-01-20T14:16:52.644Z,63.66
2019-01-20T14:19:30.036Z,64.95
2019-01-20T14:22:01.728Z,64.58
2019-01-20T14:24:33.546Z,65.33
2019-01-20T14:27:08.082Z,65.18
2019-01-20T14:29:39.840Z,65.32
2019-01-20T14:32:11.526Z,65.44
2019-01-20T14:34:42.950Z,65.21
2019-01-20T14:37:14.446Z,65.67
2019-01-20T14:39:46.747Z,66.08
2019-01-20T14:42:20.773Z,66.63
2019-01-20T14:44:52.340Z,66.17
2019-01-20T14:47:26.991Z,66.25
2019-01-20T14:49:58.517Z,66.37
2019-01-20T14:52:29.916Z,66.76
2019-01-20T14:55:02.120Z,67.22
2019-01-20T14:57:33.588Z,66.87
2019-01-20T15:00:17.084Z,66.86
2019-01-20T15:02:50.234Z,67.29
2019-01-20T15:05:35.760Z,67.34
2019-01-20T15:08:09.704Z,67.75
2019-01-20T15:10:41.238Z,67.74
2019-01-20T15:13:14.978Z,67.83
2019-01-20T15:15:46.533Z,67.97
2019-01-20T15:18:19.787Z,67.81
2019-01-20T15:20:51.446Z,67.93
2019-01-20T15:23:28.327Z,68.04
2019-01-20T15:25:59.937Z,68.10
2019-01-20T15:28:37.044Z,68.05
2019-01-20T15:31:10.440Z,68.47
2019-01-20T15:33:55.323Z,68.44
2019-01-20T15:36:26.836Z,68.69
2019-01-20T15:38:58.531Z,68.83
2019-01-20T15:41:30.692Z,69.08
2019-01-20T15:44:02.302Z,69.40
2019-01-20T15:46:33.933Z,69.80
2019-01-20T15:49:08.775Z,69.89
2019-01-20T15:51:40.500Z,70.10
2019-01-20T15:54:12.369Z,70.61
2019-01-20T15:56:44.114Z,70.38
2019-01-20T15:59:17.408Z,70.34
2019-01-20T16:01:49.108Z,70.59
2019-01-20T16:04:24.055Z,70.47
2019-01-20T16:06:54.090Z,70.79
2019-01-20T16:09:29.786Z,70.83
2019-01-20T16:12:02.663Z,70.91
2019-01-20T16:14:34.515Z,71.10
2019-01-20T16:17:07.744Z,71.29
2019-01-20T16:19:39.271Z,71.53
2019-01-20T16:22:10.839Z,71.54
2019-01-20T16:24:42.571Z,71.39
2019-01-20T16:27:16.073Z,71.55
2019-01-20T16:29:47.682Z,71.58
2019-01-20T16:32:35.046Z,71.51
2019-01-20T16:35:13.208Z,71.83
2019-01-20T16:37:44.724Z,71.96
2019-01-20T16:40:22.549Z,72.25
2019-01-20T16:42:55.394Z,72.67
2019-01-20T16:45:35.275Z,72.66
2019-01-20T16:48:08.131Z,73.21
2019-01-20T16:50:39.885Z,73.46
2019-01-20T16:53:11.469Z,73.71
2019-01-20T16:55:43.031Z,73.65
2019-01-20T16:58:14.573Z,73.85
2019-01-20T17:00:48.261Z,73.92
2019-01-20T17:03:19.851Z,73.78
2019-01-20T17:05:51.427Z,73.83
2019-01-20T17:08:23.406Z,73.75
2019-01-20T17:10:54.979Z,73.52
2019-01-20T17:13:32.523Z,73.52
2019-01-20T17:16:04.076Z,73.43
2019-01-20T17:18:35.616Z,73.47
2019-01-20T17:21:11.747Z,73.46
2019-01-20T17:23:43.171Z,73.54
2019-01-20T17:26:14.833Z,73.18
2019-01-20T17:28:46.276Z,73.39
2019-01-20T17:31:21.149Z,73.18
2019-01-20T17:33:52.978Z,73.23
2019-01-20T17:36:26.608Z,73.29
2019-01-20T17:38:57.966Z,73.32
2019-01-20T17:41:29.497Z,72.92
2019-01-20T17:44:00.866Z,73.02
2019-01-20T17:46:33.292Z,72.96
2019-01-20T17:49:05.103Z,73.10
2019-01-20T17:51:39.531Z,73.17
2019-01-20T17:54:11.035Z,72.95
2019-01-20T17:56:42.494Z,73.00
2019-01-20T17:59:14.059Z,72.74
2019-01-20T18:01:45.772Z,72.67
2019-01-20T18:04:17.291Z,72.81
2019-01-20T18:06:48.837Z,72.76
2019-01-20T18:09:22.219Z,72.77
2019-01-20T18:11:53.605Z,72.85
2019-01-20T18:14:25.083Z,73.00
2019-01-20T18:16:56.510Z,72.67
2019-01-20T18:19:27.828Z,72.97
2019-01-20T18:21:59.470Z,73.24
2019-01-20T18:24:30.753Z,73.13
2019-01-20T18:27:03.705Z,73.05
2019-01-20T18:29:35.440Z,73.08
2019-01-20T18:32:07.143Z,73.18
2019-01-20T18:34:38.660Z,73.27
2019-01-20T18:37:10.122Z,73.54
2019-01-20T18:39:41.640Z,73.54
2019-01-20T18:42:17.853Z,73.48
2019-01-20T18:44:49.475Z,73.41
2019-01-20T18:47:20.876Z,73.48
2019-01-20T18:49:52.244Z,73.50
2019-01-20T18:52:23.727Z,73.38
2019-01-20T18:54:55.188Z,73.55
2019-01-20T18:57:26.714Z,73.55
2019-01-20T18:59:58.138Z,73.63
2019-01-20T19:02:29.624Z,73.74
2019-01-20T19:05:01.023Z,73.91
2019-01-20T19:07:32.561Z,74.06
2019-01-20T19:10:04.913Z,73.95
2019-01-20T19:12:36.460Z,73.99
2019-01-20T19:15:12.741Z,73.98
2019-01-20T19:17:44.341Z,74.00
2019-01-20T19:20:25.389Z,74.36
2019-01-20T19:22:59.520Z,74.30
2019-01-20T19:25:31.059Z,74.47
2019-01-20T19:28:03.033Z,74.59
2019-01-20T19:30:36.324Z,74.69
2019-01-20T19:33:09.110Z,74.71
2019-01-20T19:35:42.362Z,74.89
2019-01-20T19:38:14.062Z,74.99
2019-01-20T19:40:46.534Z,75.04
2019-01-20T19:43:18.224Z,74.99
2019-01-20T19:45:50.790Z,75.33
2019-01-20T19:48:22.488Z,75.48
2019-01-20T19:50:54.039Z,75.75
2019-01-20T19:53:25.578Z,75.83
2019-01-20T19:55:57.054Z,75.87
2019-01-20T19:58:28.682Z,75.93
2019-01-20T20:01:00.412Z,76.06
2019-01-20T20:03:33.099Z,76.33
2019-01-20T20:06:04.791Z,76.21
2019-01-20T20:08:36.499Z,76.19
2019-01-20T20:11:08.189Z,76.35
2019-01-20T20:13:42.164Z,76.33
2019-01-20T20:16:13.660Z,76.36
2019-01-20T20:18:48.710Z,76.47
2019-01-20T20:21:20.364Z,76.48
2019-01-20T20:23:52.836Z,76.76
2019-01-20T20:26:24.532Z,76.91
2019-01-20T20:28:56.223Z,76.75
2019-01-20T20:31:27.696Z,76.72
2019-01-20T20:34:00.386Z,76.68
2019-01-20T20:36:40.494Z,76.44
2019-01-20T20:39:15.512Z,76.33
2019-01-20T20:41:48.145Z,76.40
2019-01-20T20:44:21.589Z,76.34
2019-01-20T20:46:54.245Z,76.42
2019-01-20T20:49:26.021Z,76.61
2019-01-20T20:51:57.845Z,76.39
2019-01-20T20:54:35.335Z,76.28
2019-01-20T20:57:03.837Z,76.52
2019-01-20T20:59:40.122Z,76.60
2019-01-20T21:02:16.656Z,76.57
2019-01-20T21:04:48.568Z,76.64
2019-01-20T21:07:20.365Z,76.79
2019-01-20T21:09:56.495Z,76.67
2019-01-20T21:12:25.867Z,76.69
2019-01-20T21:14:57.715Z,76.78
2019-01-20T21:17:30.314Z,76.88
2019-01-20T21:20:03.521Z,76.89
2019-01-20T21:22:35.421Z,76.70
2019-01-20T21:25:11.277Z,76.96
2019-01-20T21:27:59.586Z,76.98
2019-01-20T21:30:31.423Z,77.07
2019-01-20T21:33:03.003Z,77.09
2019-01-20T21:35:34.695Z,77.16
2019-01-20T21:38:06.998Z,77.11
2019-01-20T21:40:38.797Z,77.30
2019-01-20T21:43:10.646Z,77.10
2019-01-20T21:45:42.487Z,77.03
2019-01-20T21:48:14.940Z,77.25
2019-01-20T21:50:46.581Z,77.20
2019-01-20T21:53:18.984Z,77.33
2019-01-20T21:55:50.785Z,77.42
2019-01-20T21:58:22.237Z,77.54
2019-01-20T22:00:53.839Z,77.56
2019-01-20T22:03:25.477Z,77.61
2019-01-20T22:05:57.088Z,77.62
2019-01-20T22:08:29.588Z,77.82
2019-01-20T22:11:01.122Z,77.86
2019-01-20T22:13:32.600Z,77.86
2019-01-20T22:16:04.407Z,77.99
2019-01-20T22:18:37.404Z,78.00
2019-01-20T22:21:08.936Z,78.10
2019-01-20T22:23:40.564Z,78.22
2019-01-20T22:26:12.225Z,78.18
2019-01-20T22:28:51.983Z,78.29
2019-01-20T22:31:29.581Z,78.55
2019-01-20T22:34:01.246Z,78.32
2019-01-20T22:36:32.703Z,78.38
2019-01-20T22:39:06.142Z,78.37
2019-01-20T22:41:40.842Z,78.50
2019-01-20T22:44:12.333Z,78.55
2019-01-20T22:46:45.796Z,78.59
2019-01-20T22:49:18.080Z,78.56
2019-01-20T22:51:49.549Z,78.66
2019-01-20T22:54:21.047Z,78.69
2019-01-20T22:56:52.734Z,78.51
2019-01-20T22:59:24.478Z,78.59
2019-01-20T23:01:57.129Z,78.51
2019-01-20T23:04:28.615Z,78.44
2019-01-20T23:07:00.087Z,78.58
2019-01-20T23:09:32.092Z,78.62
2019-01-20T23:12:03.720Z,78.67
2019-01-20T23:14:38.561Z,78.67
2019-01-20T23:17:16.032Z,78.86
2019-01-20T23:19:49.239Z,78.78
2019-01-20T23:22:23.889Z,78.71
2019-01-20T23:24:56.099Z,78.64
2019-01-20T23:27:27.692Z,78.59
2019-01-20T23:29:59.437Z,78.64
2019-01-20T23:32:36.913Z,78.64
2019-01-20T23:35:10.877Z,78.60
2019-01-20T23:37:44.243Z,78.64
2019-01-20T23:40:18.943Z,78.57
2019-01-20T23:42:53.655Z,78.59
2019-01-20T23:45:28.249Z,78.62
2019-01-20T23:47:59.786Z,78.70
2019-01-20T23:50:32.228Z,78.89
2019-01-20T23:53:03.830Z,78.87
2019-01-20T23:55:35.990Z,78.80
2019-01-20T23:58:09.709Z,78.71
